Time;durP1;ratioP1;P1;durP2;ratioP2;P2;SDS_P1;SDS_P2;PMS_P1;PMS_P2;Temp;Humidity;BMP_temperature;BMP_pressure;BME280_temperature;BME280_humidity;BME280_pressure;Samples;Min_cycle;Max_cycle;Signal;HPM_P1;HPM_P2
2022/07/27 00:01:22;;;;;;;1.23;1.10;;;25.50;35.90;;;;;;5085421;28;20458;-75
2022/07/27 00:03:50;;;;;;;2.10;1.73;;;25.50;35.50;;;;;;5082988;28;20520;-78
2022/07/27 00:06:18;;;;;;;2.87;1.40;;;25.50;35.30;;;;;;5085361;28;20488;-76
2022/07/27 00:08:46;;;;;;;1.40;1.30;;;25.50;35.90;;;;;;5084769;28;20477;-75
2022/07/27 00:11:15;;;;;;;1.30;1.20;;;25.50;36.80;;;;;;5084642;28;20521;-75
2022/07/27 00:13:43;;;;;;;11.97;1.50;;;25.50;35.70;;;;;;5087172;28;20462;-74
2022/07/27 00:16:13;;;;;;;1.83;1.20;;;25.50;34.40;;;;;;5082229;28;20489;-75
2022/07/27 00:18:41;;;;;;;2.67;1.20;;;25.40;35.40;;;;;;5085713;28;20844;-76
2022/07/27 00:21:11;;;;;;;2.00;1.20;;;25.50;35.60;;;;;;5083981;28;20457;-75
2022/07/27 00:23:39;;;;;;;1.90;1.20;;;25.50;36.50;;;;;;5085470;28;20468;-75
2022/07/27 00:26:08;;;;;;;1.27;1.20;;;25.50;36.10;;;;;;5081387;28;20483;-74
2022/07/27 00:28:36;;;;;;;1.37;1.10;;;25.50;36.00;;;;;;5083994;28;20479;-76
2022/07/27 00:31:04;;;;;;;1.57;1.40;;;25.50;35.30;;;;;;5086903;28;20453;-76
2022/07/27 00:33:34;;;;;;;1.30;1.20;;;25.40;37.70;;;;;;5082082;28;20569;-75
2022/07/27 00:36:02;;;;;;;1.40;1.30;;;25.40;36.20;;;;;;5087137;28;20450;-74
2022/07/27 00:38:30;;;;;;;1.30;1.13;;;25.40;36.60;;;;;;5084311;28;20696;-76
2022/07/27 00:40:58;;;;;;;4.83;1.30;;;25.40;38.30;;;;;;5081970;28;20465;-77
2022/07/27 00:43:27;;;;;;;2.00;1.43;;;25.40;36.80;;;;;;5085209;28;20464;-76
2022/07/27 00:45:55;;;;;;;2.80;1.30;;;25.30;37.60;;;;;;5085730;28;20463;-77
2022/07/27 00:48:23;;;;;;;1.87;1.53;;;24.80;36.90;;;;;;5082436;28;20470;-75
2022/07/27 00:50:56;;;;;;;1.23;1.17;;;25.30;36.50;;;;;;5085836;28;20450;-75
2022/07/27 00:53:24;;;;;;;1.43;1.33;;;25.30;35.50;;;;;;5082640;28;20492;-74
2022/07/27 00:55:53;;;;;;;3.30;1.40;;;25.30;36.90;;;;;;5080858;28;20465;-74
2022/07/27 00:58:21;;;;;;;1.70;1.60;;;25.30;37.90;;;;;;5085470;28;20577;-75
2022/07/27 01:00:50;;;;;;;1.57;1.47;;;25.20;36.40;;;;;;5085228;28;20458;-75
2022/07/27 01:03:18;;;;;;;2.00;1.87;;;25.30;38.00;;;;;;5084022;28;20450;-76
2022/07/27 01:05:50;;;;;;;1.23;1.13;;;25.30;36.80;;;;;;5083791;28;20456;-76
2022/07/27 01:08:20;;;;;;;4.33;1.50;;;25.20;37.50;;;;;;5082287;28;20487;-74
2022/07/27 01:10:48;;;;;;;1.70;1.27;;;25.20;37.60;;;;;;5083025;28;20442;-74
2022/07/27 01:13:17;;;;;;;2.27;1.40;;;25.20;38.40;;;;;;5084873;28;20453;-75
2022/07/27 01:15:46;;;;;;;1.30;1.20;;;25.20;38.10;;;;;;5080067;28;20457;-74
2022/07/27 01:18:28;;;;;;;1.53;1.40;;;25.20;50.10;;;;;;5083308;28;21000;-75
2022/07/27 01:20:57;;;;;;;1.40;1.30;;;25.20;35.30;;;;;;5083023;28;20478;-75
2022/07/27 01:23:31;;;;;;;1.57;1.47;;;25.10;35.90;;;;;;5081352;28;20461;-76
2022/07/27 01:25:59;;;;;;;1.20;1.10;;;25.10;36.20;;;;;;5081438;28;20458;-75
2022/07/27 01:28:28;;;;;;;1.30;1.20;;;25.00;37.60;;;;;;5085370;28;20495;-75
2022/07/27 01:30:56;;;;;;;1.50;1.40;;;25.10;36.30;;;;;;5084406;28;20461;-76
2022/07/27 01:33:25;;;;;;;1.37;1.27;;;25.00;37.20;;;;;;5081512;28;20882;-75
2022/07/27 01:35:56;;;;;;;1.90;1.17;;;25.10;36.80;;;;;;5083375;28;20487;-76
2022/07/27 01:38:24;;;;;;;1.40;1.30;;;25.00;35.70;;;;;;5085175;28;20510;-75
2022/07/27 01:40:54;;;;;;;1.90;1.53;;;25.00;37.00;;;;;;5083197;28;20480;-75
2022/07/27 01:43:23;;;;;;;1.30;1.20;;;25.00;36.10;;;;;;5082537;28;21106;-76
2022/07/27 01:45:51;;;;;;;3.63;1.30;;;24.90;36.80;;;;;;5086655;28;20472;-76
2022/07/27 01:48:19;;;;;;;3.00;1.40;;;24.90;37.30;;;;;;5083437;28;20478;-74
2022/07/27 01:50:49;;;;;;;1.70;1.30;;;24.80;36.90;;;;;;5081808;28;20454;-74
2022/07/27 01:53:18;;;;;;;1.60;1.50;;;24.80;36.10;;;;;;5085996;28;20448;-75
2022/07/27 01:55:46;;;;;;;1.60;1.40;;;24.80;37.50;;;;;;5083670;28;20507;-75
2022/07/27 01:58:16;;;;;;;3.40;1.40;;;24.80;36.40;;;;;;5083475;28;20480;-74
2022/07/27 02:00:44;;;;;;;1.80;1.57;;;24.80;35.50;;;;;;5081770;28;20496;-75
2022/07/27 02:03:12;;;;;;;1.57;1.47;;;24.80;36.90;;;;;;5082231;28;20465;-74
2022/07/27 02:05:41;;;;;;;2.00;1.50;;;24.80;37.30;;;;;;5078918;28;20455;-75
2022/07/27 02:08:09;;;;;;;1.57;1.37;;;24.80;36.30;;;;;;5078305;28;21020;-76
2022/07/27 02:12:34;;;;;;;1.53;1.43;;;24.70;36.70;;;;;;5083269;28;20536;-75
2022/07/27 02:13:27;;;;;;;5.10;1.50;;;24.70;37.50;;;;;;5081815;28;20459;-74
2022/07/27 02:15:55;;;;;;;1.70;1.60;;;24.70;36.40;;;;;;5083961;28;20523;-74
2022/07/27 02:18:24;;;;;;;2.53;1.43;;;24.70;37.10;;;;;;5083696;28;20509;-74
2022/07/27 02:21:03;;;;;;;1.93;1.57;;;24.70;37.50;;;;;;5082358;28;20481;-74
2022/07/27 02:23:31;;;;;;;1.70;1.60;;;24.60;37.20;;;;;;5075211;28;20457;-76
2022/07/27 02:26:00;;;;;;;1.60;1.50;;;24.60;37.30;;;;;;5083554;28;20462;-77
2022/07/27 02:28:29;;;;;;;2.60;1.50;;;24.60;37.50;;;;;;5081284;28;20474;-74
2022/07/27 02:30:57;;;;;;;1.90;1.30;;;24.60;37.20;;;;;;5083909;28;20553;-75
2022/07/27 02:33:26;;;;;;;1.53;1.43;;;24.60;38.10;;;;;;5085759;28;20470;-76
2022/07/27 02:35:54;;;;;;;3.60;1.37;;;24.60;38.80;;;;;;5085365;28;20833;-74
2022/07/27 02:38:22;;;;;;;1.47;1.37;;;24.60;38.90;;;;;;5083612;28;20486;-75
2022/07/27 02:40:50;;;;;;;1.40;1.30;;;24.60;38.10;;;;;;5082272;28;20538;-75
2022/07/27 02:43:18;;;;;;;1.53;1.43;;;24.50;37.50;;;;;;5087591;28;20507;-74
2022/07/27 02:45:48;;;;;;;1.53;1.43;;;24.50;38.60;;;;;;5084349;28;20462;-75
2022/07/27 02:48:16;;;;;;;1.87;1.60;;;24.50;38.90;;;;;;5084239;28;20469;-76
2022/07/27 02:50:44;;;;;;;3.17;1.40;;;24.50;38.70;;;;;;5079987;28;20457;-75
2022/07/27 02:53:13;;;;;;;3.13;1.73;;;24.50;38.00;;;;;;5085026;28;20476;-74
2022/07/27 02:55:41;;;;;;;2.60;1.60;;;24.50;38.70;;;;;;5085705;28;20845;-74
2022/07/27 02:58:09;;;;;;;1.70;1.60;;;24.50;37.20;;;;;;5086147;28;20478;-75
2022/07/27 03:00:37;;;;;;;4.03;1.93;;;24.40;37.20;;;;;;5083053;28;20485;-76
2022/07/27 03:03:07;;;;;;;2.90;1.43;;;24.40;37.80;;;;;;5087300;28;20519;-75
2022/07/27 03:05:35;;;;;;;1.70;1.30;;;24.40;37.90;;;;;;5086295;28;20463;-74
2022/07/27 03:08:03;;;;;;;1.77;1.37;;;24.40;38.10;;;;;;5085118;28;20481;-74
2022/07/27 03:10:32;;;;;;;2.17;1.60;;;24.40;38.00;;;;;;5086459;28;20454;-75
2022/07/27 03:13:00;;;;;;;1.57;1.47;;;24.40;37.70;;;;;;5082303;28;20480;-76
2022/07/27 03:15:29;;;;;;;1.90;1.47;;;24.40;38.20;;;;;;5088502;28;20461;-75
2022/07/27 03:17:57;;;;;;;1.90;1.70;;;24.40;39.50;;;;;;5087570;28;20476;-74
2022/07/27 03:20:28;;;;;;;1.97;1.63;;;24.40;39.30;;;;;;5084180;28;20485;-74
2022/07/27 03:22:56;;;;;;;1.60;1.50;;;24.30;38.20;;;;;;5084245;28;20957;-75
2022/07/27 03:25:25;;;;;;;1.83;1.60;;;24.30;39.50;;;;;;5083492;28;20481;-74
2022/07/27 03:27:53;;;;;;;2.50;1.67;;;24.30;38.10;;;;;;5085698;28;20469;-74
2022/07/27 03:30:21;;;;;;;1.80;1.70;;;24.20;38.70;;;;;;5084380;28;20978;-74
2022/07/27 03:32:49;;;;;;;2.13;1.90;;;24.20;39.70;;;;;;5085334;28;20462;-74
2022/07/27 03:35:18;;;;;;;1.97;1.87;;;24.20;39.60;;;;;;5085417;28;20456;-76
2022/07/27 03:37:48;;;;;;;1.83;1.73;;;24.20;39.60;;;;;;5084424;28;21008;-74
2022/07/27 03:40:17;;;;;;;1.77;1.67;;;24.20;39.60;;;;;;5082701;28;20488;-76
2022/07/27 03:42:45;;;;;;;2.70;2.20;;;24.10;39.70;;;;;;5087581;28;21020;-74
2022/07/27 03:45:14;;;;;;;2.50;1.80;;;24.10;39.10;;;;;;5088041;28;20462;-74
2022/07/27 03:47:42;;;;;;;3.13;1.67;;;24.00;39.90;;;;;;5082927;28;20477;-75
2022/07/27 03:50:11;;;;;;;2.13;1.93;;;24.00;39.30;;;;;;5085936;28;20465;-74
2022/07/27 03:52:39;;;;;;;2.33;1.73;;;24.00;39.30;;;;;;5083926;28;20474;-76
2022/07/27 03:55:14;;;;;;;2.67;2.00;;;24.00;40.30;;;;;;5075457;28;20449;-74
2022/07/27 03:57:42;;;;;;;2.23;1.67;;;24.00;40.00;;;;;;5085306;28;20484;-74
2022/07/27 04:00:11;;;;;;;1.70;1.60;;;23.90;40.40;;;;;;5082224;28;20447;-75
2022/07/27 04:02:39;;;;;;;2.17;2.03;;;23.90;39.10;;;;;;5083391;28;20458;-75
2022/07/27 04:05:09;;;;;;;2.00;1.80;;;23.90;39.50;;;;;;5081951;28;20519;-75
2022/07/27 04:07:37;;;;;;;2.23;2.03;;;23.90;40.00;;;;;;5083602;28;20530;-74
2022/07/27 04:10:07;;;;;;;4.00;2.20;;;23.90;40.70;;;;;;5081609;28;20454;-73
2022/07/27 04:12:38;;;;;;;2.47;2.30;;;23.90;41.20;;;;;;5084665;28;20453;-75
2022/07/27 04:15:07;;;;;;;1.70;1.60;;;23.80;41.00;;;;;;5084012;28;20442;-76
2022/07/27 04:17:35;;;;;;;1.90;1.67;;;23.80;40.00;;;;;;5084497;28;20478;-74
2022/07/27 04:20:24;;;;;;;2.07;1.97;;;23.80;42.30;;;;;;5084728;28;20545;-74
2022/07/27 04:22:52;;;;;;;2.20;2.10;;;23.80;42.00;;;;;;5083498;28;20462;-74
2022/07/27 04:25:20;;;;;;;2.80;2.60;;;23.80;42.30;;;;;;5081221;28;20450;-75
2022/07/27 04:27:53;;;;;;;2.00;1.80;;;23.80;43.80;;;;;;5079868;28;20498;-74
2022/07/27 04:30:21;;;;;;;2.77;2.10;;;23.80;44.10;;;;;;5083120;28;20834;-74
2022/07/27 04:32:50;;;;;;;2.30;2.20;;;23.70;43.50;;;;;;5081941;28;20454;-74
2022/07/27 04:35:18;;;;;;;2.93;2.20;;;23.70;44.60;;;;;;5073431;28;21694;-77
2022/07/27 04:37:53;;;;;;;3.87;2.30;;;23.70;45.20;;;;;;5083619;28;21057;-77
2022/07/27 04:40:29;;;;;;;2.17;1.97;;;23.60;43.90;;;;;;5079763;28;20457;-78
2022/07/27 04:42:59;;;;;;;2.47;2.27;;;23.50;44.10;;;;;;5076688;28;20456;-78
2022/07/27 04:45:27;;;;;;;2.40;2.20;;;23.60;45.90;;;;;;5080967;28;20446;-77
2022/07/27 04:47:55;;;;;;;2.50;2.23;;;23.60;45.80;;;;;;5079307;28;20557;-78
2022/07/27 04:50:24;;;;;;;2.50;2.30;;;23.60;47.50;;;;;;5079335;28;20456;-77
2022/07/27 04:52:52;;;;;;;4.97;2.10;;;23.60;47.30;;;;;;5081368;28;20446;-77
2022/07/27 04:55:20;;;;;;;2.23;2.07;;;23.60;48.30;;;;;;5076516;28;20482;-77
2022/07/27 04:57:48;;;;;;;2.23;2.07;;;23.70;50.50;;;;;;5073108;28;20462;-77
2022/07/27 05:00:18;;;;;;;2.07;1.97;;;23.60;49.20;;;;;;5088192;28;20461;-77
2022/07/27 05:02:46;;;;;;;5.23;3.77;;;23.70;49.10;;;;;;5083797;28;20466;-79
2022/07/27 05:05:14;;;;;;;1.97;1.70;;;23.70;51.20;;;;;;5084602;28;20442;-77
2022/07/27 05:07:43;;;;;;;2.27;2.00;;;23.70;51.00;;;;;;5087875;28;20478;-78
2022/07/27 05:10:11;;;;;;;2.27;2.13;;;23.70;52.00;;;;;;5088043;28;20565;-78
2022/07/27 05:12:46;;;;;;;2.47;2.27;;;23.70;51.60;;;;;;5085709;28;20477;-77
2022/07/27 05:15:15;;;;;;;3.90;2.10;;;23.70;51.10;;;;;;5083763;28;20957;-77
2022/07/27 05:17:44;;;;;;;2.00;1.90;;;23.70;53.50;;;;;;5082844;28;20475;-76
2022/07/27 05:20:13;;;;;;;1.97;1.80;;;23.70;54.10;;;;;;5082802;28;20533;-77
2022/07/27 05:22:41;;;;;;;1.83;1.73;;;23.90;55.50;;;;;;5082980;28;20485;-76
2022/07/27 05:25:10;;;;;;;2.97;2.33;;;23.90;55.20;;;;;;5082266;28;20544;-76
2022/07/27 05:27:38;;;;;;;1.97;1.70;;;23.90;54.20;;;;;;5073545;28;20482;-76
2022/07/27 05:30:26;;;;;;;2.43;2.23;;;23.90;56.50;;;;;;5075635;28;20544;-76
2022/07/27 05:32:55;;;;;;;2.07;1.83;;;24.00;55.00;;;;;;5087274;28;20455;-76
2022/07/27 05:35:23;;;;;;;3.57;2.03;;;24.00;55.60;;;;;;5081793;28;20569;-76
2022/07/27 05:37:52;;;;;;;3.87;2.03;;;24.00;55.10;;;;;;5082326;28;20501;-76
2022/07/27 05:40:20;;;;;;;4.00;2.50;;;24.00;54.70;;;;;;5086288;28;20469;-76
2022/07/27 05:42:48;;;;;;;1.90;1.80;;;24.00;56.60;;;;;;5080165;28;20470;-76
2022/07/27 05:45:17;;;;;;;3.40;2.70;;;24.00;75.70;;;;;;5082093;28;20554;-76
2022/07/27 05:47:45;;;;;;;2.10;2.00;;;24.00;56.60;;;;;;5078350;28;20479;-76
2022/07/27 05:50:15;;;;;;;2.27;2.07;;;24.10;58.10;;;;;;5083628;28;20457;-76
2022/07/27 05:52:44;;;;;;;2.57;2.20;;;24.10;56.10;;;;;;5085469;28;20812;-75
2022/07/27 05:55:12;;;;;;;2.53;2.27;;;24.10;57.60;;;;;;5087008;28;20450;-76
2022/07/27 05:57:41;;;;;;;3.40;2.30;;;24.10;58.40;;;;;;5078381;28;20469;-76
2022/07/27 06:00:11;;;;;;;2.10;1.80;;;24.10;59.10;;;;;;5082099;28;20449;-77
2022/07/27 06:02:40;;;;;;;2.40;2.20;;;24.10;57.70;;;;;;5082326;28;20469;-76
2022/07/27 06:05:09;;;;;;;2.60;2.40;;;24.20;59.10;;;;;;5080160;28;21238;-76
2022/07/27 06:07:58;;;;;;;2.30;2.10;;;24.20;59.10;;;;;;5086910;28;20541;-76
2022/07/27 06:10:28;;;;;;;3.80;2.17;;;24.30;63.20;;;;;;5084817;28;20449;-78
2022/07/27 06:12:56;;;;;;;3.93;2.73;;;24.20;58.50;;;;;;5087503;28;20534;-76
2022/07/27 06:15:25;;;;;;;2.53;2.43;;;24.20;59.00;;;;;;5085326;28;20483;-76
2022/07/27 06:17:53;;;;;;;2.60;1.93;;;24.20;58.40;;;;;;5087418;28;20469;-76
2022/07/27 06:20:24;;;;;;;2.83;2.50;;;24.10;58.90;;;;;;5084014;28;20504;-76
2022/07/27 06:22:55;;;;;;;2.13;2.03;;;24.20;58.80;;;;;;5087655;28;20476;-76
2022/07/27 06:25:24;;;;;;;2.03;1.93;;;24.20;57.60;;;;;;5091327;28;20449;-77
2022/07/27 06:28:03;;;;;;;2.10;1.90;;;24.20;59.10;;;;;;5091914;28;20465;-77
2022/07/27 06:30:33;;;;;;;3.57;2.00;;;24.20;57.50;;;;;;5089924;28;20547;-76
2022/07/27 06:33:03;;;;;;;3.27;1.90;;;24.20;59.40;;;;;;5092634;28;20782;-76
2022/07/27 06:35:33;;;;;;;2.70;2.50;;;24.20;60.20;;;;;;5090743;28;20511;-76
2022/07/27 06:38:03;;;;;;;2.70;2.50;;;24.30;62.70;;;;;;5083298;28;20509;-76
2022/07/27 06:40:32;;;;;;;2.40;2.20;;;24.30;61.10;;;;;;5086319;28;21034;-77
2022/07/27 06:43:00;;;;;;;2.70;2.50;;;24.30;62.70;;;;;;5086287;28;20580;-77
2022/07/27 06:45:44;;;;;;;2.80;2.60;;;24.30;62.50;;;;;;5092749;27;20697;-77
2022/07/27 06:48:13;;;;;;;3.40;2.30;;;24.30;63.20;;;;;;5084707;28;20477;-77
2022/07/27 06:50:41;;;;;;;2.37;2.27;;;24.30;63.60;;;;;;5085000;28;20941;-77
2022/07/27 06:53:09;;;;;;;2.00;1.90;;;24.40;64.90;;;;;;5086105;28;20465;-77
2022/07/27 06:55:38;;;;;;;2.10;2.00;;;24.40;67.80;;;;;;5085356;28;20449;-78
2022/07/27 06:58:06;;;;;;;2.40;2.20;;;24.50;67.70;;;;;;5086173;28;20467;-78
2022/07/27 07:00:34;;;;;;;2.50;2.30;;;24.50;69.00;;;;;;5081637;28;20453;-78
2022/07/27 07:03:05;;;;;;;2.50;2.10;;;24.60;67.60;;;;;;5086013;28;20544;-77
2022/07/27 07:05:44;;;;;;;2.37;2.27;;;24.70;68.20;;;;;;5084684;28;20485;-78
2022/07/27 07:08:13;;;;;;;3.90;2.20;;;24.70;70.40;;;;;;5085006;28;20460;-77
2022/07/27 07:10:45;;;;;;;2.67;2.47;;;24.70;69.00;;;;;;5088461;28;21056;-78
2022/07/27 07:13:13;;;;;;;2.10;2.00;;;24.80;69.70;;;;;;5080575;28;20450;-78
2022/07/27 07:15:43;;;;;;;2.80;2.13;;;24.80;69.10;;;;;;5075470;28;20465;-77
2022/07/27 07:18:13;;;;;;;2.13;2.00;;;24.80;70.00;;;;;;5085688;28;20469;-77
2022/07/27 07:20:42;;;;;;;2.17;2.07;;;24.80;69.10;;;;;;5084136;28;20462;-77
2022/07/27 07:23:10;;;;;;;2.13;1.93;;;24.80;69.00;;;;;;5083296;28;20464;-78
2022/07/27 07:25:39;;;;;;;2.40;2.20;;;24.80;71.40;;;;;;5082585;28;20565;-77
2022/07/27 07:28:08;;;;;;;2.00;1.90;;;24.80;69.50;;;;;;5082310;28;20473;-77
2022/07/27 07:30:38;;;;;;;2.90;1.80;;;24.80;69.80;;;;;;5082759;28;20818;-78
2022/07/27 07:33:06;;;;;;;2.83;2.40;;;24.80;72.20;;;;;;5084415;28;20450;-77
2022/07/27 07:35:35;;;;;;;2.30;2.10;;;24.80;70.90;;;;;;5084564;28;20434;-78
2022/07/27 07:38:24;;;;;;;2.60;2.40;;;24.80;73.30;;;;;;5076099;28;20477;-78
2022/07/27 07:40:52;;;;;;;2.57;2.37;;;24.90;70.90;;;;;;5085316;28;20472;-78
2022/07/27 07:43:20;;;;;;;2.20;2.10;;;24.90;71.20;;;;;;5083781;28;20446;-78
2022/07/27 07:45:49;;;;;;;2.80;2.10;;;24.90;73.80;;;;;;5082792;28;20901;-78
2022/07/27 07:48:21;;;;;;;4.87;2.40;;;24.90;75.80;;;;;;5082353;28;21070;-77
2022/07/27 07:50:52;;;;;;;3.03;2.17;;;25.00;73.80;;;;;;5081197;28;20442;-78
2022/07/27 07:53:21;;;;;;;2.93;2.67;;;25.00;73.40;;;;;;5082859;28;20470;-78
2022/07/27 07:55:50;;;;;;;4.87;2.07;;;25.00;72.20;;;;;;5074478;28;20569;-78
2022/07/27 07:58:19;;;;;;;2.60;2.20;;;25.00;73.90;;;;;;5067985;28;20843;-77
2022/07/27 08:00:47;;;;;;;2.30;2.20;;;25.00;73.40;;;;;;5064603;28;20449;-77
2022/07/27 08:03:16;;;;;;;2.50;2.30;;;25.10;75.60;;;;;;5064297;28;20486;-77
2022/07/27 08:05:44;;;;;;;2.33;2.13;;;25.10;73.40;;;;;;5068119;28;20478;-78
2022/07/27 08:08:14;;;;;;;2.27;2.17;;;25.10;75.30;;;;;;5071370;28;20471;-78
2022/07/27 08:10:43;;;;;;;2.57;2.37;;;25.10;75.00;;;;;;5070578;28;21047;-78
2022/07/27 08:13:11;;;;;;;3.10;2.03;;;25.10;75.90;;;;;;5069993;28;20453;-78
2022/07/27 08:15:43;;;;;;;2.57;2.40;;;25.20;73.50;;;;;;5064296;28;20477;-77
2022/07/27 08:18:11;;;;;;;2.60;2.20;;;25.10;74.20;;;;;;5074069;28;20477;-78
2022/07/27 08:20:39;;;;;;;2.13;2.03;;;25.20;75.50;;;;;;5069254;28;20462;-78
2022/07/27 08:23:07;;;;;;;2.37;2.17;;;25.20;76.10;;;;;;5069801;28;20530;-77
2022/07/27 08:25:37;;;;;;;2.40;2.30;;;25.20;75.60;;;;;;5071008;28;20554;-77
2022/07/27 08:28:06;;;;;;;2.97;2.77;;;25.20;76.00;;;;;;5067720;28;20525;-77
2022/07/27 08:30:35;;;;;;;2.10;2.00;;;25.20;73.90;;;;;;5068825;28;20841;-78
2022/07/27 08:33:06;;;;;;;2.33;2.23;;;25.20;74.10;;;;;;5066300;28;20450;-78
2022/07/27 08:35:35;;;;;;;2.27;2.07;;;25.20;74.60;;;;;;5073174;28;20453;-77
2022/07/27 08:38:06;;;;;;;6.40;2.90;;;25.20;76.10;;;;;;5068578;28;20493;-78
2022/07/27 08:40:34;;;;;;;3.23;2.90;;;25.20;75.40;;;;;;5070150;28;20455;-76
2022/07/27 08:43:14;;;;;;;2.10;1.90;;;25.30;76.50;;;;;;5075961;28;20450;-77
2022/07/27 08:45:55;;;;;;;2.30;2.07;;;25.40;77.00;;;;;;5065110;28;20485;-76
2022/07/27 08:48:25;;;;;;;2.47;2.30;;;25.40;77.40;;;;;;5070230;28;20618;-77
2022/07/27 08:50:54;;;;;;;2.43;2.23;;;25.40;78.10;;;;;;5068971;28;20458;-77
2022/07/27 08:53:23;;;;;;;2.67;2.47;;;25.50;81.50;;;;;;5069646;28;20451;-77
2022/07/27 08:55:51;;;;;;;2.90;2.70;;;25.50;80.40;;;;;;5067574;28;20490;-77
2022/07/27 08:58:21;;;;;;;4.33;3.30;;;25.60;80.80;;;;;;5066785;28;20484;-79
2022/07/27 09:00:49;;;;;;;2.90;2.70;;;25.70;80.80;;;;;;5066801;28;20462;-77
2022/07/27 09:03:20;;;;;;;2.83;2.53;;;25.70;82.00;;;;;;5069731;28;20447;-77
2022/07/27 09:05:50;;;;;;;3.20;2.90;;;25.80;79.90;;;;;;5067901;28;20486;-77
2022/07/27 09:08:22;;;;;;;2.60;2.40;;;25.80;79.60;;;;;;5058891;28;20861;-76
2022/07/27 09:10:54;;;;;;;3.27;2.97;;;25.80;80.80;;;;;;5068803;28;20462;-77
2022/07/27 09:13:26;;;;;;;2.53;2.43;;;25.80;80.30;;;;;;5069463;28;20454;-77
2022/07/27 09:15:56;;;;;;;4.80;3.10;;;25.90;80.80;;;;;;5064362;28;20444;-77
2022/07/27 09:18:45;;;;;;;3.90;2.53;;;26.00;82.90;;;;;;5068946;28;20498;-79
2022/07/27 09:21:15;;;;;;;2.70;2.50;;;26.00;82.30;;;;;;5068077;28;20517;-77
2022/07/27 09:23:47;;;;;;;2.43;2.30;;;26.00;81.30;;;;;;5068152;28;20530;-78
2022/07/27 09:26:18;;;;;;;3.33;3.13;;;26.10;84.30;;;;;;5068694;28;21302;-77
2022/07/27 09:29:05;;;;;;;3.20;2.90;;;26.10;84.90;;;;;;5070255;28;20454;-77
2022/07/27 09:31:42;;;;;;;3.80;2.70;;;26.10;81.60;;;;;;5068341;28;20453;-78
2022/07/27 09:34:12;;;;;;;2.57;2.40;;;26.10;83.30;;;;;;5064705;28;20454;-77
2022/07/27 09:36:51;;;;;;;2.73;2.20;;;26.10;82.90;;;;;;5058332;28;20793;-77
2022/07/27 09:39:22;;;;;;;2.53;2.43;;;26.10;82.90;;;;;;5064864;28;20533;-77
2022/07/27 09:41:53;;;;;;;3.73;3.13;;;26.20;84.40;;;;;;5068579;28;20481;-77
2022/07/27 09:44:34;;;;;;;2.73;2.60;;;26.20;83.00;;;;;;5093720;28;21026;-77
2022/07/27 09:47:21;;;;;;;5.10;2.67;;;26.20;85.60;;;;;;5068555;28;20599;-78
2022/07/27 09:49:50;;;;;;;2.37;2.17;;;26.30;82.70;;;;;;5067797;28;20895;-77
2022/07/27 09:52:23;;;;;;;5.53;3.40;;;26.20;85.00;;;;;;5067974;28;21589;-78
2022/07/27 09:54:52;;;;;;;2.53;2.30;;;26.30;83.70;;;;;;5062668;28;20485;-78
2022/07/27 09:57:21;;;;;;;2.33;2.13;;;26.30;83.10;;;;;;5058829;28;20486;-77
2022/07/27 10:00:09;;;;;;;2.47;2.30;;;26.30;88.20;;;;;;5058051;28;20459;-78
2022/07/27 10:02:38;;;;;;;2.67;2.47;;;26.30;84.60;;;;;;5063599;28;20644;-77
2022/07/27 10:05:07;;;;;;;4.30;2.47;;;26.40;85.60;;;;;;5067582;28;20454;-77
2022/07/27 10:07:35;;;;;;;2.97;2.60;;;26.30;82.80;;;;;;5068121;28;20520;-77
2022/07/27 10:10:04;;;;;;;2.60;2.40;;;26.40;84.40;;;;;;5068928;28;20462;-77
2022/07/27 10:12:33;;;;;;;3.20;2.50;;;26.40;83.60;;;;;;5068606;28;20504;-77
2022/07/27 10:15:03;;;;;;;2.03;1.93;;;26.50;85.90;;;;;;5057975;28;20463;-77
2022/07/27 10:17:32;;;;;;;3.00;2.80;;;26.50;83.80;;;;;;5064872;28;20471;-77
2022/07/27 10:20:02;;;;;;;3.03;2.83;;;26.60;84.00;;;;;;5065646;28;20980;-77
2022/07/27 10:22:50;;;;;;;2.10;2.00;;;26.60;83.30;;;;;;5064758;28;20450;-78
2022/07/27 10:25:19;;;;;;;2.70;2.50;;;26.60;82.50;;;;;;5065352;28;20530;-78
2022/07/27 10:27:49;;;;;;;2.80;2.60;;;26.60;83.40;;;;;;5062547;28;20498;-78
2022/07/27 10:30:18;;;;;;;2.30;2.20;;;26.70;83.90;;;;;;5065270;28;20454;-77
2022/07/27 10:32:54;;;;;;;2.13;2.03;;;26.70;84.30;;;;;;5062309;28;20459;-78
2022/07/27 10:35:32;;;;;;;2.53;2.33;;;26.70;84.60;;;;;;5060369;28;21320;-78
2022/07/27 10:38:14;;;;;;;2.50;2.30;;;26.80;82.90;;;;;;5062276;28;20479;-78
2022/07/27 10:40:43;;;;;;;2.60;2.40;;;26.80;82.30;;;;;;5064173;28;20508;-78
2022/07/27 10:43:18;;;;;;;2.83;2.07;;;26.80;82.30;;;;;;5053688;28;20472;-77
2022/07/27 10:45:49;;;;;;;1.90;1.80;;;26.80;82.30;;;;;;5066996;28;20484;-77
2022/07/27 10:48:37;;;;;;;2.90;2.30;;;26.80;81.20;;;;;;5068240;28;20548;-78
2022/07/27 10:51:12;;;;;;;2.00;1.90;;;26.90;79.70;;;;;;5068571;28;21063;-78
2022/07/27 10:53:42;;;;;;;2.27;2.10;;;26.80;78.20;;;;;;5068189;28;20463;-78
2022/07/27 10:56:44;;;;;;;1.97;1.70;;;26.90;81.30;;;;;;5067449;28;20447;-79
2022/07/27 10:59:13;;;;;;;2.00;1.80;;;26.80;78.40;;;;;;5068389;28;20908;-78
2022/07/27 11:01:58;;;;;;;2.70;2.50;;;26.80;82.10;;;;;;5069040;28;20525;-77
2022/07/27 11:04:26;;;;;;;2.17;2.07;;;26.90;78.90;;;;;;5068314;28;20448;-79
2022/07/27 11:06:56;;;;;;;1.93;1.83;;;26.90;78.50;;;;;;5067791;28;20527;-78
2022/07/27 11:09:46;;;;;;;4.77;1.90;;;26.90;76.10;;;;;;5064479;28;20451;-78
2022/07/27 11:12:32;;;;;;;2.00;1.80;;;26.90;74.30;;;;;;5068809;28;20486;-78
2022/07/27 11:15:01;;;;;;;2.10;2.00;;;26.90;71.40;;;;;;5068150;28;20462;-77
2022/07/27 11:17:31;;;;;;;2.60;1.67;;;26.80;72.30;;;;;;5068594;28;20475;-77
2022/07/27 11:20:23;;;;;;;1.83;1.73;;;26.80;72.30;;;;;;5066772;28;20454;-78
2022/07/27 11:22:53;;;;;;;2.37;1.80;;;26.90;74.00;;;;;;5065096;28;20450;-78
2022/07/27 11:25:57;;;;;;;2.57;2.37;;;26.90;76.00;;;;;;5067271;28;20497;-78
2022/07/27 11:28:29;;;;;;;1.57;1.47;;;26.90;74.90;;;;;;5065902;28;20459;-78
2022/07/27 11:30:57;;;;;;;1.67;1.57;;;26.90;75.00;;;;;;5070161;28;20453;-78
2022/07/27 11:33:27;;;;;;;2.30;1.70;;;27.00;74.80;;;;;;5072598;28;20533;-78
2022/07/27 11:35:58;;;;;;;1.83;1.73;;;26.90;75.40;;;;;;5071246;28;20471;-78
2022/07/27 11:38:27;;;;;;;1.80;1.70;;;27.00;91.50;;;;;;5071521;28;20531;-78
2022/07/27 11:40:55;;;;;;;1.70;1.60;;;27.00;74.20;;;;;;5072003;28;20457;-78
2022/07/27 11:43:44;;;;;;;1.80;1.70;;;27.00;73.40;;;;;;5071639;28;20466;-79
2022/07/27 11:46:16;;;;;;;1.50;1.40;;;27.00;74.50;;;;;;5057282;28;20525;-77
2022/07/27 11:48:54;;;;;;;2.17;2.07;;;27.00;71.60;;;;;;5072107;28;20470;-78
2022/07/27 11:51:41;;;;;;;1.50;1.40;;;27.00;68.40;;;;;;5072569;28;20824;-78
2022/07/27 11:54:11;;;;;;;3.90;2.03;;;27.00;67.50;;;;;;5071197;28;20459;-78
2022/07/27 11:56:42;;;;;;;1.50;1.40;;;27.00;69.40;;;;;;5070227;28;20453;-78
2022/07/27 11:59:15;;;;;;;1.70;1.60;;;27.00;66.10;;;;;;5071312;28;20506;-78
2022/07/27 12:01:47;;;;;;;1.80;1.67;;;27.00;64.20;;;;;;5068466;28;20561;-78
2022/07/27 12:04:20;;;;;;;1.73;1.63;;;26.90;82.50;;;;;;5071620;28;20823;-79
2022/07/27 12:07:04;;;;;;;1.70;1.60;;;27.00;64.20;;;;;;5070946;28;20474;-78
2022/07/27 12:09:35;;;;;;;1.93;1.73;;;27.00;66.60;;;;;;5071886;28;20454;-78
2022/07/27 12:12:14;;;;;;;1.60;1.50;;;27.00;66.50;;;;;;5071431;28;20544;-78
2022/07/27 12:14:45;;;;;;;1.57;1.47;;;27.10;65.80;;;;;;5071310;28;20545;-78
2022/07/27 12:17:19;;;;;;;1.97;1.50;;;27.10;65.50;;;;;;5071324;28;20466;-78
2022/07/27 12:19:55;;;;;;;1.83;1.73;;;27.10;67.10;;;;;;5071535;28;20446;-78
2022/07/27 12:22:29;;;;;;;1.60;1.50;;;27.10;66.60;;;;;;5104226;28;20533;-77
2022/07/27 12:24:59;;;;;;;2.17;1.97;;;27.10;66.30;;;;;;5070787;28;20470;-78
2022/07/27 12:27:27;;;;;;;1.97;1.70;;;27.10;67.20;;;;;;5070159;28;20474;-78
2022/07/27 12:30:01;;;;;;;1.60;1.50;;;27.10;67.80;;;;;;5071537;28;20817;-78
2022/07/27 12:32:32;;;;;;;1.60;1.50;;;27.10;67.70;;;;;;5071527;28;20957;-78
2022/07/27 12:35:15;;;;;;;1.60;1.50;;;27.10;69.10;;;;;;5070886;28;20462;-78
2022/07/27 12:37:43;;;;;;;2.83;2.27;;;27.10;71.30;;;;;;5064588;28;20478;-78
2022/07/27 12:40:15;;;;;;;3.37;1.60;;;27.10;72.10;;;;;;5062140;28;20455;-79
2022/07/27 12:42:44;;;;;;;1.60;1.50;;;27.20;69.50;;;;;;5066742;28;20448;-78
2022/07/27 12:45:14;;;;;;;1.70;1.60;;;27.20;71.60;;;;;;5069153;28;20492;-78
2022/07/27 12:47:43;;;;;;;2.23;1.50;;;27.20;68.30;;;;;;5069671;28;20510;-78
2022/07/27 12:50:14;;;;;;;1.70;1.50;;;27.20;69.50;;;;;;5069079;28;20455;-78
2022/07/27 12:52:49;;;;;;;1.40;1.30;;;27.30;70.70;;;;;;5069077;28;20478;-77
2022/07/27 12:55:19;;;;;;;1.43;1.33;;;27.30;70.60;;;;;;5063281;28;20497;-78
2022/07/27 12:57:48;;;;;;;2.10;1.43;;;27.30;70.60;;;;;;5068436;28;20458;-78
2022/07/27 13:00:28;;;;;;;2.20;2.03;;;27.40;69.90;;;;;;5068642;28;20464;-78
2022/07/27 13:03:02;;;;;;;1.50;1.40;;;27.40;70.60;;;;;;5070041;28;20546;-78
2022/07/27 13:05:32;;;;;;;1.40;1.30;;;27.40;69.20;;;;;;5068147;28;20467;-79
2022/07/27 13:08:03;;;;;;;2.03;1.50;;;27.40;69.80;;;;;;5066810;28;20933;-79